createdAt,value
2022-10-08T00:00:48.764Z,76.31
2022-10-08T00:01:50.321Z,75.59
2022-10-08T00:02:53.684Z,76.18
2022-10-08T00:03:56.825Z,76.02
2022-10-08T00:04:58.489Z,76.07
2022-10-08T00:06:04.899Z,75.72
2022-10-08T00:07:07.140Z,75.75
2022-10-08T00:08:09.889Z,74.30
2022-10-08T00:09:11.427Z,73.90
2022-10-08T00:10:12.940Z,73.40
2022-10-08T00:11:17.247Z,73.07
2022-10-08T00:12:18.764Z,72.87
2022-10-08T00:13:20.953Z,72.61
2022-10-08T00:14:23.435Z,73.05
2022-10-08T00:15:25.013Z,72.63
2022-10-08T00:16:30.019Z,72.82
2022-10-08T00:17:31.664Z,72.55
2022-10-08T00:18:33.172Z,72.25
2022-10-08T00:19:34.779Z,72.86
2022-10-08T00:20:36.281Z,72.67
2022-10-08T00:21:39.308Z,72.12
2022-10-08T00:22:41.261Z,71.78
2022-10-08T00:23:44.056Z,71.91
2022-10-08T00:24:46.541Z,71.56
2022-10-08T00:25:48.125Z,70.79
2022-10-08T00:26:50.864Z,70.06
2022-10-08T00:27:52.425Z,70.11
2022-10-08T00:28:57.110Z,70.65
2022-10-08T00:29:58.961Z,70.09
2022-10-08T00:31:07.499Z,71.30
2022-10-08T00:32:09.081Z,71.34
2022-10-08T00:33:10.616Z,71.13
2022-10-08T00:34:15.994Z,71.05
2022-10-08T00:35:17.500Z,72.20
2022-10-08T00:36:19.031Z,71.61
2022-10-08T00:37:20.678Z,71.97
2022-10-08T00:38:22.195Z,71.65
2022-10-08T00:39:24.852Z,71.55
2022-10-08T00:40:26.468Z,71.18
2022-10-08T00:41:30.492Z,70.81
2022-10-08T00:42:32.032Z,72.41
2022-10-08T00:43:46.115Z,73.28
2022-10-08T00:44:50.042Z,73.83
2022-10-08T00:45:51.616Z,74.63
2022-10-08T00:46:53.620Z,75.88
2022-10-08T00:47:56.312Z,75.81
2022-10-08T00:49:13.857Z,75.42
2022-10-08T00:50:18.372Z,75.59
2022-10-08T00:51:19.904Z,75.49
2022-10-08T00:52:22.710Z,75.07
2022-10-08T00:53:24.364Z,74.89
2022-10-08T00:54:25.927Z,75.10
2022-10-08T00:55:29.155Z,74.27
2022-10-08T00:56:35.976Z,74.63
2022-10-08T00:57:38.632Z,74.00
2022-10-08T00:58:42.983Z,74.47
2022-10-08T00:59:44.543Z,74.22
2022-10-08T01:00:47.744Z,74.10
2022-10-08T01:01:49.583Z,73.71
2022-10-08T01:02:52.134Z,74.01
2022-10-08T01:03:54.272Z,74.02
2022-10-08T01:04:55.967Z,74.43
2022-10-08T01:06:15.295Z,74.46
2022-10-08T01:07:20.537Z,74.84
2022-10-08T01:08:32.052Z,74.35
2022-10-08T01:09:40.711Z,73.92
2022-10-08T01:11:01.569Z,73.72
2022-10-08T01:12:15.883Z,73.21
2022-10-08T01:13:31.211Z,72.56
2022-10-08T01:14:32.670Z,73.74
2022-10-08T01:15:50.015Z,73.70
2022-10-08T01:16:58.318Z,73.85
2022-10-08T01:18:44.429Z,74.60
2022-10-08T01:20:17.325Z,75.49
2022-10-08T01:21:24.599Z,75.26
2022-10-08T01:22:50.905Z,75.46
2022-10-08T01:24:05.977Z,75.95
2022-10-08T01:25:34.653Z,76.13
2022-10-08T01:26:39.286Z,76.01
2022-10-08T01:27:47.919Z,75.53
2022-10-08T01:29:01.283Z,75.03
2022-10-08T01:30:07.309Z,75.46
2022-10-08T01:31:20.498Z,75.51
2022-10-08T01:32:29.822Z,75.13
2022-10-08T01:33:43.244Z,74.89
2022-10-08T01:34:49.837Z,74.62
2022-10-08T01:35:57.645Z,74.75
2022-10-08T01:37:01.267Z,74.36
2022-10-08T01:38:07.127Z,73.84
2022-10-08T01:39:13.322Z,73.20
2022-10-08T01:40:22.511Z,73.62
2022-10-08T01:41:26.315Z,72.88
2022-10-08T01:42:32.207Z,72.40
2022-10-08T01:43:38.435Z,72.67
2022-10-08T01:44:49.508Z,73.09
2022-10-08T01:45:58.955Z,72.54
2022-10-08T01:47:05.375Z,72.60
2022-10-08T01:48:14.853Z,71.98
2022-10-08T01:49:22.705Z,71.39
2022-10-08T01:50:30.657Z,71.79
2022-10-08T01:51:41.954Z,71.15
2022-10-08T01:52:50.422Z,71.81
2022-10-08T01:53:53.135Z,71.32
2022-10-08T01:54:59.821Z,71.16
2022-10-08T01:56:04.432Z,70.75
2022-10-08T01:57:09.390Z,70.99
2022-10-08T01:58:21.894Z,71.24
2022-10-08T01:59:31.191Z,71.33
2022-10-08T02:00:34.713Z,70.92
2022-10-08T02:02:00.665Z,70.79
2022-10-08T02:03:02.915Z,70.96
2022-10-08T02:04:23.376Z,70.87
2022-10-08T02:05:29.792Z,70.34
2022-10-08T02:06:37.232Z,70.48
2022-10-08T02:07:43.369Z,70.41
2022-10-08T02:08:44.989Z,70.37
2022-10-08T02:10:01.068Z,70.42
2022-10-08T02:11:02.612Z,70.74
2022-10-08T02:12:04.996Z,70.61
2022-10-08T02:13:06.902Z,70.76
2022-10-08T02:14:08.492Z,70.53
2022-10-08T02:15:23.405Z,70.73
2022-10-08T02:16:29.625Z,70.54
2022-10-08T02:18:06.228Z,70.95
2022-10-08T02:19:15.202Z,70.88
2022-10-08T02:20:26.474Z,70.09
2022-10-08T02:21:29.710Z,70.95
2022-10-08T02:23:03.743Z,71.50
2022-10-08T02:24:14.555Z,72.18
2022-10-08T02:25:21.574Z,71.44
2022-10-08T02:26:31.962Z,72.08
2022-10-08T02:27:43.917Z,72.16
2022-10-08T02:29:00.756Z,72.35
2022-10-08T02:30:09.898Z,71.81
2022-10-08T02:31:45.019Z,72.61
2022-10-08T02:32:57.936Z,72.57
2022-10-08T02:34:09.829Z,72.94
2022-10-08T02:35:19.254Z,72.97
2022-10-08T02:36:28.427Z,73.27
2022-10-08T02:37:40.470Z,73.11
2022-10-08T02:38:50.440Z,73.63
2022-10-08T02:39:59.901Z,74.00
2022-10-08T02:41:05.357Z,74.37
2022-10-08T02:42:11.690Z,75.04
2022-10-08T02:43:20.389Z,74.88
2022-10-08T02:44:36.947Z,75.81
2022-10-08T02:45:46.485Z,75.63
2022-10-08T02:46:53.404Z,75.70
2022-10-08T02:48:04.071Z,75.42
2022-10-08T02:49:10.720Z,73.96
2022-10-08T02:50:17.897Z,74.43
2022-10-08T02:51:19.828Z,73.98
2022-10-08T02:52:27.226Z,74.57
2022-10-08T02:53:30.019Z,73.95
2022-10-08T02:54:37.897Z,73.69
2022-10-08T02:56:08.652Z,73.94
2022-10-08T02:57:20.035Z,72.97
2022-10-08T02:58:22.107Z,72.89
2022-10-08T02:59:25.287Z,73.85
2022-10-08T03:00:35.300Z,74.54
2022-10-08T03:01:44.450Z,74.87
2022-10-08T03:03:02.005Z,75.76
2022-10-08T03:04:24.015Z,75.26
2022-10-08T03:05:27.198Z,75.21
2022-10-08T03:06:30.082Z,75.08
2022-10-08T03:07:33.924Z,75.06
2022-10-08T03:08:39.186Z,75.40
2022-10-08T03:09:44.521Z,74.65
2022-10-08T03:10:47.095Z,75.41
2022-10-08T03:11:49.497Z,75.45
2022-10-08T03:12:51.025Z,76.00
2022-10-08T03:13:58.679Z,75.71
2022-10-08T03:15:01.278Z,75.70
2022-10-08T03:16:07.227Z,75.87
2022-10-08T03:17:11.787Z,75.39
2022-10-08T03:18:13.523Z,75.21
2022-10-08T03:19:17.707Z,74.66
2022-10-08T03:20:19.508Z,74.66
2022-10-08T03:21:21.193Z,74.46
2022-10-08T03:22:24.099Z,74.73
2022-10-08T03:23:25.672Z,74.33
2022-10-08T03:24:27.245Z,73.47
2022-10-08T03:25:28.864Z,73.99
2022-10-08T03:26:30.396Z,73.49
2022-10-08T03:27:31.957Z,73.85
2022-10-08T03:28:33.861Z,72.81
2022-10-08T03:29:35.623Z,73.82
2022-10-08T03:30:37.401Z,74.22
2022-10-08T03:31:39.204Z,73.81
2022-10-08T03:32:40.710Z,73.04
2022-10-08T03:33:42.227Z,73.42
2022-10-08T03:34:43.779Z,74.92
2022-10-08T03:35:46.630Z,75.66
2022-10-08T03:36:48.160Z,77.39
2022-10-08T03:37:51.607Z,77.13
2022-10-08T03:38:53.188Z,77.40
2022-10-08T03:39:54.700Z,78.23
2022-10-08T03:40:58.170Z,76.86
2022-10-08T03:41:59.709Z,77.49
2022-10-08T03:43:01.227Z,77.37
2022-10-08T03:44:03.211Z,76.63
2022-10-08T03:45:05.705Z,76.60
2022-10-08T03:46:08.869Z,75.61
2022-10-08T03:47:10.434Z,76.49
2022-10-08T03:48:11.922Z,75.78
2022-10-08T03:49:13.607Z,75.60
2022-10-08T03:50:15.126Z,75.34
2022-10-08T03:51:18.447Z,74.96
2022-10-08T03:52:19.961Z,74.55
2022-10-08T03:53:22.573Z,74.15
2022-10-08T03:54:24.335Z,74.66
2022-10-08T03:55:25.868Z,73.84
2022-10-08T03:56:27.565Z,74.34
2022-10-08T03:57:29.093Z,75.04
2022-10-08T03:58:30.872Z,75.05
2022-10-08T03:59:32.409Z,76.14
2022-10-08T04:00:33.932Z,77.00
2022-10-08T04:01:35.608Z,77.69
2022-10-08T04:02:37.211Z,77.46
2022-10-08T04:03:38.861Z,77.97
2022-10-08T04:04:40.425Z,78.25
2022-10-08T04:05:49.137Z,77.99
2022-10-08T04:06:50.702Z,78.37
2022-10-08T04:07:52.292Z,78.71
2022-10-08T04:08:56.023Z,77.58
2022-10-08T04:09:57.540Z,78.55
2022-10-08T04:11:03.820Z,78.40
2022-10-08T04:12:05.447Z,78.20
2022-10-08T04:13:06.985Z,77.71
2022-10-08T04:14:08.598Z,78.67
2022-10-08T04:15:10.458Z,78.63
2022-10-08T04:16:15.127Z,79.16
2022-10-08T04:17:16.721Z,80.13
2022-10-08T04:18:18.515Z,80.12
2022-10-08T04:19:20.035Z,80.84
2022-10-08T04:20:21.543Z,81.17
2022-10-08T04:21:23.114Z,80.84
2022-10-08T04:22:24.686Z,81.49
2022-10-08T04:23:26.859Z,81.59
2022-10-08T04:24:28.356Z,81.22
2022-10-08T04:25:29.948Z,81.83
2022-10-08T04:26:31.716Z,81.76
2022-10-08T04:27:33.234Z,81.65
2022-10-08T04:28:39.641Z,81.09
2022-10-08T04:29:41.210Z,81.58
2022-10-08T04:30:42.744Z,80.81
2022-10-08T04:31:44.333Z,81.45
2022-10-08T04:32:46.193Z,81.94
2022-10-08T04:33:48.023Z,81.67
2022-10-08T04:34:49.557Z,82.11
2022-10-08T04:35:51.109Z,81.92
2022-10-08T04:36:52.619Z,82.83
2022-10-08T04:37:54.122Z,82.10
2022-10-08T04:38:55.655Z,82.40
2022-10-08T04:39:57.184Z,83.06
2022-10-08T04:41:10.640Z,81.95
2022-10-08T04:42:12.123Z,82.46
2022-10-08T04:43:16.256Z,82.99
2022-10-08T04:44:17.784Z,82.92
2022-10-08T04:45:19.382Z,82.38
2022-10-08T04:46:22.386Z,82.38
2022-10-08T04:47:23.978Z,82.97
2022-10-08T04:48:25.577Z,83.23
2022-10-08T04:49:28.938Z,82.80
2022-10-08T04:50:30.454Z,82.26
2022-10-08T04:51:32.075Z,82.33
2022-10-08T04:52:33.596Z,81.74
2022-10-08T04:53:35.703Z,81.39
2022-10-08T04:54:37.276Z,81.77
2022-10-08T04:55:38.778Z,80.79
2022-10-08T04:56:40.363Z,80.82
2022-10-08T04:57:41.902Z,80.39
2022-10-08T04:58:44.654Z,80.89
2022-10-08T05:00:13.130Z,81.08
2022-10-08T05:01:10.367Z,81.89
2022-10-08T05:02:11.980Z,81.93
2022-10-08T05:03:14.250Z,82.30
2022-10-08T05:04:15.888Z,81.25
2022-10-08T05:05:17.436Z,81.90
2022-10-08T05:06:22.784Z,81.70
2022-10-08T05:07:24.450Z,82.38
2022-10-08T05:08:26.055Z,82.54
2022-10-08T05:09:27.598Z,82.05
2022-10-08T05:10:29.122Z,82.43
2022-10-08T05:11:32.448Z,82.67
2022-10-08T05:12:33.967Z,81.34
2022-10-08T05:13:35.950Z,81.31
2022-10-08T05:14:37.513Z,80.51
2022-10-08T05:15:39.076Z,79.60
2022-10-08T05:16:40.633Z,79.53
2022-10-08T05:17:42.169Z,79.00
2022-10-08T05:18:44.358Z,80.34
2022-10-08T05:19:45.956Z,81.64
2022-10-08T05:20:47.485Z,81.27
2022-10-08T05:21:49.003Z,81.69
2022-10-08T05:22:50.712Z,81.84
2022-10-08T05:24:11.920Z,80.56
2022-10-08T05:25:13.944Z,80.46
2022-10-08T05:26:41.143Z,80.24
2022-10-08T05:27:43.957Z,83.52
2022-10-08T05:28:49.721Z,84.36
2022-10-08T05:29:51.229Z,82.11
2022-10-08T05:30:52.803Z,79.32
2022-10-08T05:31:54.366Z,77.85
2022-10-08T05:32:55.929Z,77.98
2022-10-08T05:33:57.698Z,77.50
2022-10-08T05:34:59.226Z,78.62
2022-10-08T05:36:04.209Z,78.11
2022-10-08T05:37:05.750Z,78.17
2022-10-08T05:38:07.298Z,77.13
2022-10-08T05:39:08.910Z,77.94
2022-10-08T05:40:10.929Z,77.63
2022-10-08T05:41:23.413Z,76.40
2022-10-08T05:42:24.920Z,76.50
2022-10-08T05:43:26.437Z,76.39
2022-10-08T05:44:27.959Z,76.00
2022-10-08T05:45:29.490Z,75.54
2022-10-08T05:46:33.673Z,74.98
2022-10-08T05:47:35.242Z,74.05
2022-10-08T05:48:37.192Z,73.44
2022-10-08T05:49:38.785Z,73.24
2022-10-08T05:50:40.305Z,73.11
2022-10-08T05:51:41.867Z,72.14
2022-10-08T05:52:43.407Z,71.66
2022-10-08T05:53:47.519Z,71.19
2022-10-08T05:54:49.056Z,70.57
2022-10-08T05:55:59.799Z,70.45
2022-10-08T05:57:01.362Z,69.32
2022-10-08T05:58:02.893Z,68.63
2022-10-08T05:59:04.554Z,68.50
2022-10-08T06:00:06.635Z,67.66
2022-10-08T06:01:13.017Z,68.21
2022-10-08T06:02:14.585Z,68.40
2022-10-08T06:03:16.124Z,68.48
2022-10-08T06:04:18.729Z,68.43
2022-10-08T06:05:20.374Z,67.88
2022-10-08T06:06:23.146Z,66.63
2022-10-08T06:07:24.829Z,66.05
2022-10-08T06:08:26.477Z,65.79
2022-10-08T06:09:28.075Z,66.37
2022-10-08T06:10:32.099Z,65.42
2022-10-08T06:11:35.513Z,65.32
2022-10-08T06:12:37.017Z,64.74
2022-10-08T06:13:38.734Z,65.17
2022-10-08T06:14:40.849Z,64.82
2022-10-08T06:15:42.354Z,64.54
2022-10-08T06:16:43.905Z,63.56
2022-10-08T06:17:45.481Z,63.79
2022-10-08T06:18:47.181Z,62.77
2022-10-08T06:19:48.765Z,63.28
2022-10-08T06:20:50.717Z,62.75
2022-10-08T06:21:52.245Z,62.85
2022-10-08T06:22:53.791Z,62.56
2022-10-08T06:24:00.977Z,62.59
2022-10-08T06:25:02.485Z,61.71
2022-10-08T06:26:09.926Z,61.83
2022-10-08T06:27:11.770Z,61.95
2022-10-08T06:28:14.027Z,60.90
2022-10-08T06:29:18.262Z,61.74
2022-10-08T06:30:19.853Z,61.75
2022-10-08T06:31:22.033Z,61.83
2022-10-08T06:32:23.638Z,62.13
2022-10-08T06:33:25.224Z,61.24
2022-10-08T06:34:26.819Z,61.81
2022-10-08T06:35:30.284Z,61.24
2022-10-08T06:36:33.591Z,61.72
2022-10-08T06:37:35.317Z,61.01
2022-10-08T06:38:36.902Z,61.59
2022-10-08T06:39:38.458Z,61.26
2022-10-08T06:40:40.885Z,59.88
2022-10-08T06:41:42.518Z,59.17
2022-10-08T06:42:44.232Z,58.80
2022-10-08T06:43:46.156Z,59.12
2022-10-08T06:44:47.702Z,58.83
2022-10-08T06:45:49.305Z,59.46
2022-10-08T06:46:50.876Z,59.69
2022-10-08T06:47:52.403Z,59.17
2022-10-08T06:48:54.006Z,58.95
2022-10-08T06:49:55.569Z,58.23
2022-10-08T06:51:02.089Z,58.92
2022-10-08T06:52:03.624Z,58.89
2022-10-08T06:53:07.535Z,58.21
2022-10-08T06:54:09.104Z,58.89
2022-10-08T06:55:10.619Z,57.90
2022-10-08T06:56:14.908Z,56.32
2022-10-08T06:57:16.537Z,57.86
2022-10-08T06:58:18.031Z,58.74
2022-10-08T06:59:19.542Z,56.77
2022-10-08T07:00:21.132Z,56.75
2022-10-08T07:01:30.347Z,57.39
2022-10-08T07:02:34.449Z,57.83
2022-10-08T07:03:36.668Z,56.68
2022-10-08T07:04:38.341Z,57.39
2022-10-08T07:05:40.115Z,58.13
2022-10-08T07:06:41.654Z,58.40
2022-10-08T07:07:43.191Z,57.40
2022-10-08T07:08:45.536Z,58.21
2022-10-08T07:09:47.061Z,57.65
2022-10-08T07:10:50.022Z,57.94
2022-10-08T07:11:51.611Z,56.78
2022-10-08T07:12:53.180Z,57.75
2022-10-08T07:13:55.945Z,57.57
2022-10-08T07:14:57.476Z,57.02
2022-10-08T07:16:07.806Z,56.99
2022-10-08T07:17:09.421Z,57.15
2022-10-08T07:18:12.697Z,57.08
2022-10-08T07:19:15.248Z,56.37
2022-10-08T07:20:16.918Z,55.49
2022-10-08T07:21:20.720Z,55.01
2022-10-08T07:22:22.845Z,55.21
2022-10-08T07:23:24.583Z,54.20
2022-10-08T07:24:26.111Z,53.00
2022-10-08T07:25:27.632Z,53.61
2022-10-08T07:26:33.159Z,53.74
2022-10-08T07:27:34.733Z,53.62
2022-10-08T07:28:38.144Z,54.54
2022-10-08T07:29:39.803Z,54.38
2022-10-08T07:30:41.353Z,54.30
2022-10-08T07:31:42.915Z,52.92
2022-10-08T07:32:44.711Z,52.77
2022-10-08T07:33:46.614Z,53.61
2022-10-08T07:34:48.130Z,52.91
2022-10-08T07:35:49.698Z,54.35
2022-10-08T07:36:51.295Z,54.25
2022-10-08T07:37:52.814Z,54.42
2022-10-08T07:38:56.366Z,54.01
2022-10-08T07:39:57.875Z,54.55
2022-10-08T07:40:59.404Z,55.25
2022-10-08T07:42:00.896Z,55.69
2022-10-08T07:43:03.291Z,55.32
2022-10-08T07:44:06.017Z,53.11
2022-10-08T07:45:08.159Z,54.44
2022-10-08T07:46:11.747Z,55.40
2022-10-08T07:47:13.408Z,54.10
2022-10-08T07:48:16.457Z,53.49
2022-10-08T07:49:19.395Z,53.49
2022-10-08T07:50:21.616Z,52.29
2022-10-08T07:51:23.301Z,52.72
2022-10-08T07:52:24.789Z,52.52
2022-10-08T07:53:26.287Z,52.09
2022-10-08T07:54:27.807Z,51.53
2022-10-08T07:55:29.596Z,52.67
2022-10-08T07:56:31.948Z,52.96
2022-10-08T07:57:33.594Z,52.68
2022-10-08T07:58:36.194Z,53.24
2022-10-08T07:59:37.684Z,53.24
2022-10-08T08:00:42.895Z,52.64
2022-10-08T08:01:44.982Z,52.09
2022-10-08T08:02:48.860Z,51.75
2022-10-08T08:03:55.797Z,51.50
2022-10-08T08:04:57.428Z,53.23
2022-10-08T08:06:12.533Z,53.09
2022-10-08T08:07:14.825Z,51.90
2022-10-08T08:08:16.544Z,52.35
2022-10-08T08:09:18.664Z,52.14
2022-10-08T08:10:20.209Z,51.85
2022-10-08T08:11:24.010Z,53.57
2022-10-08T08:12:25.550Z,55.19
2022-10-08T08:13:31.873Z,55.69
2022-10-08T08:14:37.427Z,53.95
2022-10-08T08:15:38.992Z,54.44
2022-10-08T08:16:40.700Z,55.22
2022-10-08T08:17:42.374Z,55.60
2022-10-08T08:18:46.637Z,55.33
2022-10-08T08:19:48.166Z,55.35
2022-10-08T08:20:49.723Z,53.79
2022-10-08T08:21:51.303Z,53.19
2022-10-08T08:22:52.882Z,53.53
2022-10-08T08:23:59.550Z,53.92
2022-10-08T08:25:01.064Z,53.69
2022-10-08T08:26:04.412Z,52.68
2022-10-08T08:27:05.945Z,53.75
2022-10-08T08:28:07.510Z,53.15
2022-10-08T08:29:15.382Z,54.16
2022-10-08T08:30:16.960Z,54.38
2022-10-08T08:31:24.420Z,55.49
2022-10-08T08:32:28.659Z,54.76
2022-10-08T08:33:30.301Z,54.04
2022-10-08T08:34:31.893Z,54.48
2022-10-08T08:35:33.605Z,54.61
2022-10-08T08:36:37.719Z,53.19
2022-10-08T08:37:39.229Z,53.30
2022-10-08T08:38:40.776Z,52.42
2022-10-08T08:39:42.312Z,53.87
2022-10-08T08:40:43.879Z,54.32
2022-10-08T08:41:53.727Z,54.29
2022-10-08T08:42:56.769Z,53.97
2022-10-08T08:44:23.441Z,54.23
2022-10-08T08:45:48.776Z,52.34
2022-10-08T08:47:24.660Z,52.22
2022-10-08T08:48:33.348Z,51.66
2022-10-08T08:49:52.057Z,51.81
2022-10-08T08:50:56.320Z,51.58
2022-10-08T08:52:01.357Z,52.34
2022-10-08T08:53:05.037Z,51.98
2022-10-08T08:54:06.586Z,51.71
2022-10-08T08:55:17.200Z,51.31
2022-10-08T08:56:23.091Z,51.49
2022-10-08T08:57:42.439Z,51.81
2022-10-08T08:59:08.473Z,51.64
2022-10-08T09:00:18.028Z,51.34
2022-10-08T09:01:36.306Z,51.87
2022-10-08T09:02:47.391Z,51.54
2022-10-08T09:03:55.904Z,51.94
2022-10-08T09:05:08.305Z,52.08
2022-10-08T09:06:14.581Z,53.38
2022-10-08T09:07:21.790Z,53.43
2022-10-08T09:08:35.877Z,51.56
2022-10-08T09:09:42.866Z,50.91
2022-10-08T09:10:49.842Z,50.58
2022-10-08T09:11:51.414Z,51.03
2022-10-08T09:12:53.927Z,49.38
2022-10-08T09:14:14.624Z,51.23
2022-10-08T09:15:29.129Z,50.45
2022-10-08T09:16:30.700Z,50.93
2022-10-08T09:17:35.633Z,50.40
2022-10-08T09:18:37.865Z,50.69
2022-10-08T09:19:40.530Z,50.74
2022-10-08T09:20:42.568Z,50.96
2022-10-08T09:21:44.090Z,50.89
2022-10-08T09:22:46.366Z,49.27
2022-10-08T09:23:48.140Z,50.15
2022-10-08T09:24:59.399Z,51.38
2022-10-08T09:26:04.611Z,51.58
2022-10-08T09:27:14.746Z,51.06
2022-10-08T09:28:38.014Z,50.69
2022-10-08T09:29:39.697Z,50.70
2022-10-08T09:30:45.078Z,49.57
2022-10-08T09:31:48.896Z,49.22
2022-10-08T09:32:55.079Z,47.94
2022-10-08T09:34:13.244Z,47.73
2022-10-08T09:35:15.910Z,47.39
2022-10-08T09:36:29.311Z,47.17
2022-10-08T09:37:30.864Z,47.24
2022-10-08T09:38:39.206Z,47.43
2022-10-08T09:40:26.724Z,47.54
2022-10-08T09:41:30.255Z,48.05
2022-10-08T09:42:31.817Z,47.30
2022-10-08T09:43:35.588Z,47.75
2022-10-08T09:44:59.044Z,48.81
2022-10-08T09:46:11.187Z,48.57
2022-10-08T09:47:18.986Z,47.92
2022-10-08T09:48:28.534Z,48.38
2022-10-08T09:49:33.087Z,48.05
2022-10-08T09:50:37.425Z,47.83
2022-10-08T09:51:42.735Z,47.41
2022-10-08T09:52:45.250Z,46.68
2022-10-08T09:53:54.867Z,47.17
2022-10-08T09:55:07.117Z,48.65
2022-10-08T09:56:10.215Z,48.30
2022-10-08T09:57:17.658Z,47.56
2022-10-08T09:58:19.780Z,48.05
2022-10-08T09:59:25.103Z,47.82
2022-10-08T10:00:35.530Z,47.45
2022-10-08T10:01:45.837Z,47.99
2022-10-08T10:02:54.455Z,49.56
2022-10-08T10:03:58.665Z,50.00
2022-10-08T10:05:02.291Z,48.43
2022-10-08T10:06:04.399Z,48.88
2022-10-08T10:07:06.483Z,48.88
2022-10-08T10:08:46.457Z,47.52
2022-10-08T10:09:57.240Z,48.23
2022-10-08T10:10:59.251Z,47.32
2022-10-08T10:12:06.797Z,47.36
2022-10-08T10:13:25.281Z,47.27
2022-10-08T10:14:42.771Z,47.31
2022-10-08T10:15:49.516Z,46.44
2022-10-08T10:16:59.503Z,46.07
2022-10-08T10:18:13.813Z,46.32
2022-10-08T10:19:20.357Z,46.10
2022-10-08T10:20:30.205Z,46.80
2022-10-08T10:21:44.984Z,47.76
2022-10-08T10:23:10.703Z,48.76
2022-10-08T10:24:30.218Z,49.88
2022-10-08T10:25:56.179Z,48.92
2022-10-08T10:27:15.734Z,48.47
2022-10-08T10:28:33.807Z,48.89
2022-10-08T10:29:49.919Z,48.16
2022-10-08T10:31:03.424Z,48.09
2022-10-08T10:32:36.914Z,47.60
2022-10-08T10:33:49.710Z,47.76
2022-10-08T10:35:03.573Z,46.13
2022-10-08T10:36:10.685Z,45.39
2022-10-08T10:37:25.574Z,44.86
2022-10-08T10:38:29.644Z,45.67
2022-10-08T10:39:52.835Z,46.26
2022-10-08T10:41:09.707Z,46.14
2022-10-08T10:42:33.806Z,45.21
2022-10-08T10:43:48.136Z,45.34
2022-10-08T10:45:17.299Z,45.35
2022-10-08T10:46:33.505Z,45.79
2022-10-08T10:47:35.056Z,45.26
2022-10-08T10:48:36.586Z,45.31
2022-10-08T10:49:42.139Z,45.04
2022-10-08T10:51:01.310Z,45.39
2022-10-08T10:52:21.497Z,45.62
2022-10-08T10:53:30.486Z,45.82
2022-10-08T10:54:54.038Z,45.94
2022-10-08T10:56:07.372Z,45.69
2022-10-08T10:57:18.399Z,47.51
2022-10-08T10:58:25.653Z,46.24
2022-10-08T10:59:59.886Z,45.51
2022-10-08T11:01:22.782Z,45.46
2022-10-08T11:02:46.917Z,45.90
2022-10-08T11:03:51.345Z,45.66
2022-10-08T11:05:11.681Z,45.88
2022-10-08T11:06:38.247Z,44.84
2022-10-08T11:07:49.900Z,45.22
2022-10-08T11:08:55.962Z,45.12
2022-10-08T11:10:07.295Z,44.44
2022-10-08T11:11:18.181Z,45.03
2022-10-08T11:12:46.030Z,45.04
2022-10-08T11:13:56.868Z,45.17
2022-10-08T11:15:22.351Z,44.20
2022-10-08T11:16:39.373Z,44.25
2022-10-08T11:17:44.009Z,45.23
2022-10-08T11:18:54.401Z,44.47
2022-10-08T11:20:39.569Z,43.18
2022-10-08T11:21:47.026Z,43.69
2022-10-08T11:23:03.583Z,42.86
2022-10-08T11:24:42.725Z,43.58
2022-10-08T11:26:22.424Z,43.03
2022-10-08T11:27:42.482Z,43.61
2022-10-08T11:28:56.418Z,45.27
2022-10-08T11:30:14.195Z,44.74
2022-10-08T11:31:31.274Z,43.50
2022-10-08T11:32:34.000Z,43.07
2022-10-08T11:33:36.816Z,44.28
2022-10-08T11:34:40.257Z,42.40
2022-10-08T11:36:04.509Z,41.96
2022-10-08T11:37:45.765Z,42.25
2022-10-08T11:39:00.054Z,41.64
2022-10-08T11:40:10.560Z,41.98
2022-10-08T11:41:27.459Z,42.50
2022-10-08T11:43:01.964Z,41.52
2022-10-08T11:44:07.659Z,40.95
2022-10-08T11:45:24.317Z,41.31
2022-10-08T11:46:31.779Z,41.57
2022-10-08T11:47:48.545Z,40.81
2022-10-08T11:48:50.717Z,41.05
2022-10-08T11:49:55.795Z,40.15
2022-10-08T11:51:18.895Z,40.08
2022-10-08T11:52:20.456Z,39.44
2022-10-08T11:53:22.669Z,39.53
2022-10-08T11:54:34.719Z,38.56
2022-10-08T11:55:37.353Z,39.17
2022-10-08T11:56:51.707Z,38.67
2022-10-08T11:58:09.638Z,37.98
2022-10-08T11:59:30.196Z,38.53
2022-10-08T12:00:42.948Z,38.07
2022-10-08T12:01:52.981Z,36.08
2022-10-08T12:02:56.201Z,37.50
2022-10-08T12:04:08.689Z,38.21
2022-10-08T12:05:49.333Z,39.53
2022-10-08T12:07:06.401Z,38.11
2022-10-08T12:08:08.137Z,38.40
2022-10-08T12:09:24.597Z,38.06
2022-10-08T12:10:38.763Z,38.44
2022-10-08T12:11:40.363Z,37.87
2022-10-08T12:12:50.907Z,38.54
2022-10-08T12:14:11.074Z,38.63
2022-10-08T12:15:24.762Z,38.93
2022-10-08T12:16:49.235Z,39.24
2022-10-08T12:17:56.705Z,37.71
2022-10-08T12:18:59.054Z,37.73
2022-10-08T12:20:03.452Z,37.74
2022-10-08T12:21:17.181Z,37.82
2022-10-08T12:22:18.653Z,37.82
2022-10-08T12:23:20.108Z,38.07
2022-10-08T12:25:03.881Z,38.16
2022-10-08T12:26:37.446Z,37.89
2022-10-08T12:27:50.329Z,39.32
2022-10-08T12:28:51.911Z,38.14
2022-10-08T12:30:03.873Z,38.64
2022-10-08T12:31:17.609Z,38.25
2022-10-08T12:32:19.352Z,37.80
2022-10-08T12:33:21.543Z,37.73
2022-10-08T12:34:23.465Z,37.13
2022-10-08T12:35:40.503Z,37.29
2022-10-08T12:36:52.298Z,36.59
2022-10-08T12:38:05.044Z,36.07
2022-10-08T12:39:18.261Z,36.98
2022-10-08T12:40:33.737Z,36.81
2022-10-08T12:41:38.264Z,36.75
2022-10-08T12:42:41.133Z,36.17
2022-10-08T12:44:02.767Z,36.55
2022-10-08T12:45:34.265Z,36.15
2022-10-08T12:46:58.787Z,36.15
2022-10-08T12:48:00.373Z,37.46
2022-10-08T12:49:17.038Z,35.77
2022-10-08T12:50:48.181Z,34.81
2022-10-08T12:52:12.815Z,34.29
2022-10-08T12:53:17.553Z,34.63
2022-10-08T12:54:23.042Z,35.40
2022-10-08T12:55:24.797Z,36.66
2022-10-08T12:56:29.088Z,36.50
2022-10-08T12:57:38.058Z,35.86
2022-10-08T12:58:39.710Z,35.72
2022-10-08T12:59:42.323Z,35.50
2022-10-08T13:00:45.021Z,35.44
2022-10-08T13:01:48.171Z,35.50
2022-10-08T13:03:11.830Z,35.51
2022-10-08T13:04:26.439Z,34.78
2022-10-08T13:05:36.876Z,34.90
2022-10-08T13:06:38.481Z,35.08
2022-10-08T13:07:40.211Z,35.28
2022-10-08T13:08:42.725Z,35.36
2022-10-08T13:09:44.613Z,35.44
2022-10-08T13:10:46.353Z,35.83
2022-10-08T13:11:52.186Z,35.19
2022-10-08T13:13:05.029Z,35.03
2022-10-08T13:14:24.799Z,35.06
2022-10-08T13:15:26.406Z,35.34
2022-10-08T13:16:28.865Z,35.67
2022-10-08T13:17:33.492Z,37.37
2022-10-08T13:18:36.666Z,37.29
2022-10-08T13:19:40.238Z,37.61
2022-10-08T13:20:59.037Z,37.00
2022-10-08T13:22:01.905Z,36.55
2022-10-08T13:23:46.363Z,35.63
2022-10-08T13:24:47.936Z,35.73
2022-10-08T13:25:49.921Z,36.15
2022-10-08T13:26:54.285Z,36.59
2022-10-08T13:28:36.144Z,36.77
2022-10-08T13:29:42.452Z,36.88
2022-10-08T13:30:47.096Z,37.14
2022-10-08T13:32:14.823Z,37.59
2022-10-08T13:33:21.393Z,36.89
2022-10-08T13:34:26.112Z,36.68
2022-10-08T13:35:27.949Z,37.00
2022-10-08T13:36:29.601Z,36.71
2022-10-08T13:37:40.389Z,36.76
2022-10-08T13:38:41.932Z,37.15
2022-10-08T13:39:51.888Z,37.12
2022-10-08T13:40:58.801Z,36.88
2022-10-08T13:42:04.520Z,36.65
2022-10-08T13:43:06.806Z,37.38
2022-10-08T13:44:09.604Z,37.01
2022-10-08T13:45:25.402Z,37.54
2022-10-08T13:46:26.967Z,37.04
2022-10-08T13:47:29.095Z,37.15
2022-10-08T13:48:30.799Z,37.66
2022-10-08T13:49:33.228Z,37.81
2022-10-08T13:50:35.011Z,36.71
2022-10-08T13:51:36.560Z,36.67
2022-10-08T13:52:44.132Z,36.74
2022-10-08T13:53:45.923Z,36.67
2022-10-08T13:54:48.807Z,37.05
2022-10-08T13:55:50.542Z,36.86
2022-10-08T13:56:52.599Z,36.68
2022-10-08T13:57:55.897Z,36.52
2022-10-08T13:58:57.414Z,36.92
2022-10-08T13:59:58.993Z,35.07
2022-10-08T14:01:00.926Z,35.55
2022-10-08T14:02:02.551Z,36.81
2022-10-08T14:03:04.179Z,36.91
2022-10-08T14:04:05.736Z,36.44
2022-10-08T14:05:07.643Z,36.47
2022-10-08T14:06:09.199Z,35.42
2022-10-08T14:07:37.343Z,35.50
2022-10-08T14:08:38.932Z,36.23
2022-10-08T14:09:40.465Z,36.01
2022-10-08T14:10:42.819Z,36.68
2022-10-08T14:11:46.281Z,37.15
2022-10-08T14:12:48.104Z,37.10
2022-10-08T14:13:49.619Z,37.27
2022-10-08T14:14:51.294Z,37.02
2022-10-08T14:15:52.976Z,35.35
2022-10-08T14:16:54.541Z,35.34
2022-10-08T14:17:56.129Z,35.34
2022-10-08T14:18:59.332Z,34.92
2022-10-08T14:20:01.007Z,34.93
2022-10-08T14:21:02.594Z,35.41